Terminal Aerodrome Forecast
Issued by NWS

Home | Current Version | Previous Version | Text Only | Print | Product List | Glossary Off
Versions: 1 2 3 4 5 6 7 8 9 10 11 12 13 14 15 16 17 18 19 20 21 22 23 24 25 26 27 28 29

000
FTUS43 KGRB 210534
TAFRHI
TAF
KRHI 210534Z 2106/2206 27006KT P6SM SKC
     FM211100 28007KT P6SM FEW070 BKN200
     FM211300 30011KT P6SM SCT070 BKN200
     FM211600 30009KT P6SM -SHRA BKN070 BKN120
     FM211900 33006KT P6SM SCT100
     FM220000 VRB03KT P6SM SKC=

USA.gov is the U.S. government's official web portal to all federal, state and local government web resources and services.